sensor_id;sensor_type;location;lat;lon;timestamp;temperature;humidity
45207;DHT22;30950;53.086;21.576;2023-03-23T00:01:15;10.70;99.90
45207;DHT22;30950;53.086;21.576;2023-03-23T00:03:47;10.50;99.90
45207;DHT22;30950;53.086;21.576;2023-03-23T00:06:13;10.50;99.90
45207;DHT22;30950;53.086;21.576;2023-03-23T00:08:48;10.50;99.90
45207;DHT22;30950;53.086;21.576;2023-03-23T00:11:18;10.50;99.90
45207;DHT22;30950;53.086;21.576;2023-03-23T00:13:46;10.50;99.90
45207;DHT22;30950;53.086;21.576;2023-03-23T00:16:13;10.50;99.90
45207;DHT22;30950;53.086;21.576;2023-03-23T00:18:46;10.50;99.90
45207;DHT22;30950;53.086;21.576;2023-03-23T00:21:12;10.60;99.90
45207;DHT22;30950;53.086;21.576;2023-03-23T00:23:39;10.50;99.90
45207;DHT22;30950;53.086;21.576;2023-03-23T00:26:06;10.50;99.90
45207;DHT22;30950;53.086;21.576;2023-03-23T00:28:32;10.50;99.90
45207;DHT22;30950;53.086;21.576;2023-03-23T00:31:00;10.50;99.90
45207;DHT22;30950;53.086;21.576;2023-03-23T00:33:29;10.40;99.90
45207;DHT22;30950;53.086;21.576;2023-03-23T00:35:56;10.50;99.90
45207;DHT22;30950;53.086;21.576;2023-03-23T00:38:23;10.40;99.90
45207;DHT22;30950;53.086;21.576;2023-03-23T00:40:50;10.40;99.90
45207;DHT22;30950;53.086;21.576;2023-03-23T00:43:18;10.40;99.90
45207;DHT22;30950;53.086;21.576;2023-03-23T00:45:45;10.30;99.90
45207;DHT22;30950;53.086;21.576;2023-03-23T00:48:23;10.40;99.90
45207;DHT22;30950;53.086;21.576;2023-03-23T00:50:51;10.40;99.90
45207;DHT22;30950;53.086;21.576;2023-03-23T00:53:18;10.50;99.90
45207;DHT22;30950;53.086;21.576;2023-03-23T00:55:46;10.30;99.90
45207;DHT22;30950;53.086;21.576;2023-03-23T00:58:13;10.40;99.90
45207;DHT22;30950;53.086;21.576;2023-03-23T01:00:40;10.30;99.90
45207;DHT22;30950;53.086;21.576;2023-03-23T01:03:09;10.30;99.90
45207;DHT22;30950;53.086;21.576;2023-03-23T01:05:39;10.40;99.90
45207;DHT22;30950;53.086;21.576;2023-03-23T01:08:06;10.30;99.90
45207;DHT22;30950;53.086;21.576;2023-03-23T01:10:33;10.30;99.90
45207;DHT22;30950;53.086;21.576;2023-03-23T01:13:00;10.30;99.90
45207;DHT22;30950;53.086;21.576;2023-03-23T01:15:27;10.20;99.90
45207;DHT22;30950;53.086;21.576;2023-03-23T01:17:54;10.30;99.90
45207;DHT22;30950;53.086;21.576;2023-03-23T01:20:20;10.20;99.90
45207;DHT22;30950;53.086;21.576;2023-03-23T01:22:46;10.20;99.90
45207;DHT22;30950;53.086;21.576;2023-03-23T01:25:13;10.20;99.90
45207;DHT22;30950;53.086;21.576;2023-03-23T01:27:40;10.10;99.90
45207;DHT22;30950;53.086;21.576;2023-03-23T01:30:08;10.10;99.90
45207;DHT22;30950;53.086;21.576;2023-03-23T01:32:36;10.10;99.90
45207;DHT22;30950;53.086;21.576;2023-03-23T01:35:02;10.10;99.90
45207;DHT22;30950;53.086;21.576;2023-03-23T01:37:30;10.10;99.90
45207;DHT22;30950;53.086;21.576;2023-03-23T01:39:56;10.10;99.90
45207;DHT22;30950;53.086;21.576;2023-03-23T01:42:24;10.00;99.90
45207;DHT22;30950;53.086;21.576;2023-03-23T01:47:20;10.00;99.90
45207;DHT22;30950;53.086;21.576;2023-03-23T01:49:51;10.10;99.90
45207;DHT22;30950;53.086;21.576;2023-03-23T01:52:24;10.00;99.90
45207;DHT22;30950;53.086;21.576;2023-03-23T01:54:56;10.10;99.90
45207;DHT22;30950;53.086;21.576;2023-03-23T01:57:24;10.00;99.90
45207;DHT22;30950;53.086;21.576;2023-03-23T01:59:58;10.00;99.90
45207;DHT22;30950;53.086;21.576;2023-03-23T02:02:44;10.20;99.90
45207;DHT22;30950;53.086;21.576;2023-03-23T02:05:21;10.00;99.90
45207;DHT22;30950;53.086;21.576;2023-03-23T02:07:50;10.00;99.90
45207;DHT22;30950;53.086;21.576;2023-03-23T02:10:17;10.00;99.90
45207;DHT22;30950;53.086;21.576;2023-03-23T02:12:44;10.00;99.90
45207;DHT22;30950;53.086;21.576;2023-03-23T02:15:11;10.00;99.90
45207;DHT22;30950;53.086;21.576;2023-03-23T02:17:47;10.00;99.90
45207;DHT22;30950;53.086;21.576;2023-03-23T02:36:39;9.90;99.90
45207;DHT22;30950;53.086;21.576;2023-03-23T02:39:12;9.90;99.90
45207;DHT22;30950;53.086;21.576;2023-03-23T02:41:42;9.90;99.90
45207;DHT22;30950;53.086;21.576;2023-03-23T02:44:11;10.10;99.90
45207;DHT22;30950;53.086;21.576;2023-03-23T02:46:39;10.00;99.90
45207;DHT22;30950;53.086;21.576;2023-03-23T02:49:08;9.90;99.90
45207;DHT22;30950;53.086;21.576;2023-03-23T02:51:35;9.80;99.90
45207;DHT22;30950;53.086;21.576;2023-03-23T02:54:04;9.80;99.90
45207;DHT22;30950;53.086;21.576;2023-03-23T02:56:32;9.80;99.90
45207;DHT22;30950;53.086;21.576;2023-03-23T02:59:01;9.80;99.90
45207;DHT22;30950;53.086;21.576;2023-03-23T03:03:57;9.80;99.90
45207;DHT22;30950;53.086;21.576;2023-03-23T03:06:35;9.70;99.90
45207;DHT22;30950;53.086;21.576;2023-03-23T03:09:07;9.90;99.90
45207;DHT22;30950;53.086;21.576;2023-03-23T03:11:35;9.80;99.90
45207;DHT22;30950;53.086;21.576;2023-03-23T03:14:11;9.80;99.90
45207;DHT22;30950;53.086;21.576;2023-03-23T03:16:47;9.80;99.90
45207;DHT22;30950;53.086;21.576;2023-03-23T03:21:50;9.80;99.90
45207;DHT22;30950;53.086;21.576;2023-03-23T03:24:24;9.70;99.90
45207;DHT22;30950;53.086;21.576;2023-03-23T03:26:52;9.80;99.90
45207;DHT22;30950;53.086;21.576;2023-03-23T03:29:36;9.90;99.90
45207;DHT22;30950;53.086;21.576;2023-03-23T03:32:05;10.00;99.90
45207;DHT22;30950;53.086;21.576;2023-03-23T03:34:33;10.30;99.90
45207;DHT22;30950;53.086;21.576;2023-03-23T03:37:02;9.70;99.90
45207;DHT22;30950;53.086;21.576;2023-03-23T03:39:36;9.70;99.90
45207;DHT22;30950;53.086;21.576;2023-03-23T03:42:04;9.70;99.90
45207;DHT22;30950;53.086;21.576;2023-03-23T03:44:32;9.70;99.90
45207;DHT22;30950;53.086;21.576;2023-03-23T03:46:58;9.70;99.90
45207;DHT22;30950;53.086;21.576;2023-03-23T03:49:25;9.70;99.90
45207;DHT22;30950;53.086;21.576;2023-03-23T03:51:53;9.80;99.90
45207;DHT22;30950;53.086;21.576;2023-03-23T03:54:24;10.20;99.90
45207;DHT22;30950;53.086;21.576;2023-03-23T03:56:51;9.70;99.90
45207;DHT22;30950;53.086;21.576;2023-03-23T03:59:38;9.70;99.90
45207;DHT22;30950;53.086;21.576;2023-03-23T04:02:23;9.70;99.90
45207;DHT22;30950;53.086;21.576;2023-03-23T04:04:51;10.00;99.90
45207;DHT22;30950;53.086;21.576;2023-03-23T04:07:20;9.70;99.90
45207;DHT22;30950;53.086;21.576;2023-03-23T04:09:47;9.70;99.90
45207;DHT22;30950;53.086;21.576;2023-03-23T04:12:16;9.70;99.90
45207;DHT22;30950;53.086;21.576;2023-03-23T04:14:55;9.70;99.90
45207;DHT22;30950;53.086;21.576;2023-03-23T04:17:22;9.70;99.90
45207;DHT22;30950;53.086;21.576;2023-03-23T04:19:53;9.60;99.90
45207;DHT22;30950;53.086;21.576;2023-03-23T04:22:24;9.70;99.90
45207;DHT22;30950;53.086;21.576;2023-03-23T04:24:59;9.60;99.90
45207;DHT22;30950;53.086;21.576;2023-03-23T04:27:27;9.60;99.90
45207;DHT22;30950;53.086;21.576;2023-03-23T04:29:56;9.60;99.90
45207;DHT22;30950;53.086;21.576;2023-03-23T04:32:43;10.00;99.90
45207;DHT22;30950;53.086;21.576;2023-03-23T04:35:13;9.70;99.90
45207;DHT22;30950;53.086;21.576;2023-03-23T04:37:50;9.60;99.90
45207;DHT22;30950;53.086;21.576;2023-03-23T04:40:20;9.70;99.90
45207;DHT22;30950;53.086;21.576;2023-03-23T04:42:57;9.60;99.90
45207;DHT22;30950;53.086;21.576;2023-03-23T04:45:54;9.80;99.90
45207;DHT22;30950;53.086;21.576;2023-03-23T04:48:30;9.70;99.90
45207;DHT22;30950;53.086;21.576;2023-03-23T04:51:19;9.80;99.90
45207;DHT22;30950;53.086;21.576;2023-03-23T04:53:49;9.60;99.90
45207;DHT22;30950;53.086;21.576;2023-03-23T04:56:16;9.70;99.90
45207;DHT22;30950;53.086;21.576;2023-03-23T04:58:45;9.70;99.90
45207;DHT22;30950;53.086;21.576;2023-03-23T05:01:25;9.60;99.90
45207;DHT22;30950;53.086;21.576;2023-03-23T05:04:16;9.60;99.90
45207;DHT22;30950;53.086;21.576;2023-03-23T05:06:53;9.70;99.90
45207;DHT22;30950;53.086;21.576;2023-03-23T05:09:25;10.40;99.90
45207;DHT22;30950;53.086;21.576;2023-03-23T05:11:51;9.60;99.90
45207;DHT22;30950;53.086;21.576;2023-03-23T05:14:17;10.60;99.90
45207;DHT22;30950;53.086;21.576;2023-03-23T05:16:51;9.70;99.90
45207;DHT22;30950;53.086;21.576;2023-03-23T05:19:19;9.70;99.90
45207;DHT22;30950;53.086;21.576;2023-03-23T05:21:46;9.70;99.90
45207;DHT22;30950;53.086;21.576;2023-03-23T05:24:12;9.70;99.90
45207;DHT22;30950;53.086;21.576;2023-03-23T05:26:39;9.70;99.90
45207;DHT22;30950;53.086;21.576;2023-03-23T05:29:14;9.70;99.90
45207;DHT22;30950;53.086;21.576;2023-03-23T05:31:56;9.70;99.90
45207;DHT22;30950;53.086;21.576;2023-03-23T05:34:26;9.70;99.90
45207;DHT22;30950;53.086;21.576;2023-03-23T05:36:56;9.70;99.90
45207;DHT22;30950;53.086;21.576;2023-03-23T05:39:49;9.80;99.90
45207;DHT22;30950;53.086;21.576;2023-03-23T05:42:39;9.90;99.90
45207;DHT22;30950;53.086;21.576;2023-03-23T05:45:15;9.80;99.90
45207;DHT22;30950;53.086;21.576;2023-03-23T05:47:44;9.80;99.90
45207;DHT22;30950;53.086;21.576;2023-03-23T05:50:16;9.80;99.90
45207;DHT22;30950;53.086;21.576;2023-03-23T05:52:43;9.80;99.90
45207;DHT22;30950;53.086;21.576;2023-03-23T05:55:12;9.70;99.90
45207;DHT22;30950;53.086;21.576;2023-03-23T05:57:41;9.80;99.90
45207;DHT22;30950;53.086;21.576;2023-03-23T06:00:17;9.80;99.90
45207;DHT22;30950;53.086;21.576;2023-03-23T06:02:55;9.80;99.90
45207;DHT22;30950;53.086;21.576;2023-03-23T06:05:30;9.90;99.90
45207;DHT22;30950;53.086;21.576;2023-03-23T06:07:58;9.90;99.90
45207;DHT22;30950;53.086;21.576;2023-03-23T06:10:26;9.90;99.90
45207;DHT22;30950;53.086;21.576;2023-03-23T06:13:00;10.00;99.90
45207;DHT22;30950;53.086;21.576;2023-03-23T06:15:39;10.00;99.90
45207;DHT22;30950;53.086;21.576;2023-03-23T06:18:19;10.00;99.90
45207;DHT22;30950;53.086;21.576;2023-03-23T06:21:10;10.20;99.90
45207;DHT22;30950;53.086;21.576;2023-03-23T06:24:00;10.20;99.90
45207;DHT22;30950;53.086;21.576;2023-03-23T06:26:35;10.30;99.90
45207;DHT22;30950;53.086;21.576;2023-03-23T06:29:05;10.50;99.90
45207;DHT22;30950;53.086;21.576;2023-03-23T06:31:48;10.50;99.90
45207;DHT22;30950;53.086;21.576;2023-03-23T06:34:15;10.70;99.90
45207;DHT22;30950;53.086;21.576;2023-03-23T06:37:00;10.90;99.90
45207;DHT22;30950;53.086;21.576;2023-03-23T06:39:45;10.70;99.90
45207;DHT22;30950;53.086;21.576;2023-03-23T06:42:18;10.70;99.90
45207;DHT22;30950;53.086;21.576;2023-03-23T06:44:51;10.80;99.90
45207;DHT22;30950;53.086;21.576;2023-03-23T06:47:17;10.90;99.90
45207;DHT22;30950;53.086;21.576;2023-03-23T06:49:47;11.00;99.90
45207;DHT22;30950;53.086;21.576;2023-03-23T06:52:26;11.20;99.90
45207;DHT22;30950;53.086;21.576;2023-03-23T06:54:53;11.20;99.90
45207;DHT22;30950;53.086;21.576;2023-03-23T06:57:20;11.40;99.90
45207;DHT22;30950;53.086;21.576;2023-03-23T06:59:49;11.60;99.90
45207;DHT22;30950;53.086;21.576;2023-03-23T07:02:15;11.70;99.90
45207;DHT22;30950;53.086;21.576;2023-03-23T07:04:44;11.90;99.90
45207;DHT22;30950;53.086;21.576;2023-03-23T07:07:22;12.00;99.90
45207;DHT22;30950;53.086;21.576;2023-03-23T07:10:07;12.10;99.90
45207;DHT22;30950;53.086;21.576;2023-03-23T07:12:35;12.20;99.90
45207;DHT22;30950;53.086;21.576;2023-03-23T07:15:03;12.30;99.90
45207;DHT22;30950;53.086;21.576;2023-03-23T07:17:30;12.30;99.90
45207;DHT22;30950;53.086;21.576;2023-03-23T07:20:07;12.50;99.90
45207;DHT22;30950;53.086;21.576;2023-03-23T07:22:34;12.50;99.90
45207;DHT22;30950;53.086;21.576;2023-03-23T07:25:08;12.60;99.90
45207;DHT22;30950;53.086;21.576;2023-03-23T07:27:49;12.70;99.90
45207;DHT22;30950;53.086;21.576;2023-03-23T07:30:17;12.80;99.90
45207;DHT22;30950;53.086;21.576;2023-03-23T07:32:43;13.00;99.90
45207;DHT22;30950;53.086;21.576;2023-03-23T07:35:09;13.10;99.90
45207;DHT22;30950;53.086;21.576;2023-03-23T07:37:47;13.10;99.90
45207;DHT22;30950;53.086;21.576;2023-03-23T07:40:16;13.20;99.90
45207;DHT22;30950;53.086;21.576;2023-03-23T07:42:51;13.30;99.90
45207;DHT22;30950;53.086;21.576;2023-03-23T07:45:26;13.40;99.90
45207;DHT22;30950;53.086;21.576;2023-03-23T07:47:54;13.40;99.90
45207;DHT22;30950;53.086;21.576;2023-03-23T07:50:21;13.40;99.90
45207;DHT22;30950;53.086;21.576;2023-03-23T07:52:55;13.40;99.90
45207;DHT22;30950;53.086;21.576;2023-03-23T07:55:23;13.40;99.90
45207;DHT22;30950;53.086;21.576;2023-03-23T07:58:13;13.40;99.90
45207;DHT22;30950;53.086;21.576;2023-03-23T08:00:46;13.30;99.90
45207;DHT22;30950;53.086;21.576;2023-03-23T08:03:15;13.40;99.90
45207;DHT22;30950;53.086;21.576;2023-03-23T08:06:12;13.50;99.90
45207;DHT22;30950;53.086;21.576;2023-03-23T08:09:05;13.60;99.90
45207;DHT22;30950;53.086;21.576;2023-03-23T08:11:58;13.70;99.90
45207;DHT22;30950;53.086;21.576;2023-03-23T08:14:47;13.90;99.90
45207;DHT22;30950;53.086;21.576;2023-03-23T08:17:33;14.10;99.90
45207;DHT22;30950;53.086;21.576;2023-03-23T08:20:23;14.20;99.90
45207;DHT22;30950;53.086;21.576;2023-03-23T08:23:00;14.30;99.90
45207;DHT22;30950;53.086;21.576;2023-03-23T08:25:28;14.30;99.90
45207;DHT22;30950;53.086;21.576;2023-03-23T08:28:23;14.40;99.90
45207;DHT22;30950;53.086;21.576;2023-03-23T08:31:10;14.40;99.90
45207;DHT22;30950;53.086;21.576;2023-03-23T08:34:00;14.40;99.90
45207;DHT22;30950;53.086;21.576;2023-03-23T08:36:45;14.60;99.90
45207;DHT22;30950;53.086;21.576;2023-03-23T08:39:31;14.70;99.90
45207;DHT22;30950;53.086;21.576;2023-03-23T08:42:00;14.80;99.90
45207;DHT22;30950;53.086;21.576;2023-03-23T08:44:46;14.90;99.90
45207;DHT22;30950;53.086;21.576;2023-03-23T08:47:27;14.90;99.90
45207;DHT22;30950;53.086;21.576;2023-03-23T08:50:15;15.10;99.90
45207;DHT22;30950;53.086;21.576;2023-03-23T08:53:13;15.30;99.90
45207;DHT22;30950;53.086;21.576;2023-03-23T08:56:07;15.40;99.90
45207;DHT22;30950;53.086;21.576;2023-03-23T08:59:02;15.50;99.90
45207;DHT22;30950;53.086;21.576;2023-03-23T09:01:53;15.50;99.90
45207;DHT22;30950;53.086;21.576;2023-03-23T09:04:22;15.60;99.90
45207;DHT22;30950;53.086;21.576;2023-03-23T09:07:20;15.60;99.90
45207;DHT22;30950;53.086;21.576;2023-03-23T09:09:46;15.60;99.90
45207;DHT22;30950;53.086;21.576;2023-03-23T09:12:12;15.60;99.90
45207;DHT22;30950;53.086;21.576;2023-03-23T09:14:39;15.60;99.90
45207;DHT22;30950;53.086;21.576;2023-03-23T09:17:07;15.70;99.90
45207;DHT22;30950;53.086;21.576;2023-03-23T09:19:33;15.90;99.90
45207;DHT22;30950;53.086;21.576;2023-03-23T09:22:00;16.00;99.90
45207;DHT22;30950;53.086;21.576;2023-03-23T09:24:26;16.20;99.90
45207;DHT22;30950;53.086;21.576;2023-03-23T09:26:53;16.40;99.90
45207;DHT22;30950;53.086;21.576;2023-03-23T09:29:19;16.60;99.90
45207;DHT22;30950;53.086;21.576;2023-03-23T09:31:47;16.70;97.00
45207;DHT22;30950;53.086;21.576;2023-03-23T09:34:14;16.80;98.20
45207;DHT22;30950;53.086;21.576;2023-03-23T09:36:44;16.90;96.60
45207;DHT22;30950;53.086;21.576;2023-03-23T09:39:12;17.00;95.50
45207;DHT22;30950;53.086;21.576;2023-03-23T09:42:11;17.00;92.00
45207;DHT22;30950;53.086;21.576;2023-03-23T09:44:45;17.00;89.20
45207;DHT22;30950;53.086;21.576;2023-03-23T09:49:57;16.90;89.90
45207;DHT22;30950;53.086;21.576;2023-03-23T09:52:50;16.80;87.70
45207;DHT22;30950;53.086;21.576;2023-03-23T09:55:18;16.70;89.80
45207;DHT22;30950;53.086;21.576;2023-03-23T10:00:29;16.60;87.60
45207;DHT22;30950;53.086;21.576;2023-03-23T10:03:00;16.60;89.00
45207;DHT22;30950;53.086;21.576;2023-03-23T10:05:37;16.60;88.10
45207;DHT22;30950;53.086;21.576;2023-03-23T10:08:14;16.60;89.40
45207;DHT22;30950;53.086;21.576;2023-03-23T10:15:58;17.00;86.50
45207;DHT22;30950;53.086;21.576;2023-03-23T10:18:43;17.00;84.20
45207;DHT22;30950;53.086;21.576;2023-03-23T10:21:17;17.00;83.80
45207;DHT22;30950;53.086;21.576;2023-03-23T10:24:02;16.90;83.10
45207;DHT22;30950;53.086;21.576;2023-03-23T10:29:08;16.90;82.80
45207;DHT22;30950;53.086;21.576;2023-03-23T10:34:31;17.00;81.40
45207;DHT22;30950;53.086;21.576;2023-03-23T10:37:22;17.00;81.30
45207;DHT22;30950;53.086;21.576;2023-03-23T10:39:52;17.20;80.40
45207;DHT22;30950;53.086;21.576;2023-03-23T10:42:34;17.20;81.80
45207;DHT22;30950;53.086;21.576;2023-03-23T10:50:37;17.60;76.10
45207;DHT22;30950;53.086;21.576;2023-03-23T10:53:26;17.60;77.30
45207;DHT22;30950;53.086;21.576;2023-03-23T10:55:54;17.60;76.90
45207;DHT22;30950;53.086;21.576;2023-03-23T10:58:33;17.50;73.60
45207;DHT22;30950;53.086;21.576;2023-03-23T11:01:03;17.60;73.70
45207;DHT22;30950;53.086;21.576;2023-03-23T11:06:05;17.50;74.10
45207;DHT22;30950;53.086;21.576;2023-03-23T11:08:38;17.60;71.50
45207;DHT22;30950;53.086;21.576;2023-03-23T11:11:27;17.60;72.00
45207;DHT22;30950;53.086;21.576;2023-03-23T11:14:02;17.70;71.80
45207;DHT22;30950;53.086;21.576;2023-03-23T11:16:31;17.80;71.90
45207;DHT22;30950;53.086;21.576;2023-03-23T11:18:59;17.80;72.10
45207;DHT22;30950;53.086;21.576;2023-03-23T11:21:27;17.90;72.10
45207;DHT22;30950;53.086;21.576;2023-03-23T11:23:57;17.90;72.00
45207;DHT22;30950;53.086;21.576;2023-03-23T11:26:33;18.00;72.30
45207;DHT22;30950;53.086;21.576;2023-03-23T11:29:17;18.10;71.40
45207;DHT22;30950;53.086;21.576;2023-03-23T11:31:50;18.20;69.70
45207;DHT22;30950;53.086;21.576;2023-03-23T11:34:24;18.30;69.70
45207;DHT22;30950;53.086;21.576;2023-03-23T11:36:58;18.40;69.10
45207;DHT22;30950;53.086;21.576;2023-03-23T11:39:35;18.60;69.70
45207;DHT22;30950;53.086;21.576;2023-03-23T11:42:56;18.80;67.70
45207;DHT22;30950;53.086;21.576;2023-03-23T11:50:32;19.00;66.30
45207;DHT22;30950;53.086;21.576;2023-03-23T11:56:00;19.00;66.60
45207;DHT22;30950;53.086;21.576;2023-03-23T11:58:28;19.00;66.90
45207;DHT22;30950;53.086;21.576;2023-03-23T12:01:00;19.10;67.00
45207;DHT22;30950;53.086;21.576;2023-03-23T12:06:10;18.90;64.70
45207;DHT22;30950;53.086;21.576;2023-03-23T12:23:01;19.50;63.30
45207;DHT22;30950;53.086;21.576;2023-03-23T12:30:41;19.40;62.40
45207;DHT22;30950;53.086;21.576;2023-03-23T12:33:32;19.30;63.00
45207;DHT22;30950;53.086;21.576;2023-03-23T12:48:04;18.70;63.90
45207;DHT22;30950;53.086;21.576;2023-03-23T12:50:44;18.60;64.20
45207;DHT22;30950;53.086;21.576;2023-03-23T12:53:20;18.60;64.60
45207;DHT22;30950;53.086;21.576;2023-03-23T12:55:52;18.50;65.30
45207;DHT22;30950;53.086;21.576;2023-03-23T12:58:23;18.40;65.00
45207;DHT22;30950;53.086;21.576;2023-03-23T13:00:59;18.40;65.60
45207;DHT22;30950;53.086;21.576;2023-03-23T13:03:44;18.40;65.90
45207;DHT22;30950;53.086;21.576;2023-03-23T13:11:58;18.40;65.50
45207;DHT22;30950;53.086;21.576;2023-03-23T13:22:44;18.10;66.80
45207;DHT22;30950;53.086;21.576;2023-03-23T13:25:24;18.00;67.30
45207;DHT22;30950;53.086;21.576;2023-03-23T13:27:58;17.90;67.70
45207;DHT22;30950;53.086;21.576;2023-03-23T13:30:26;17.80;67.50
45207;DHT22;30950;53.086;21.576;2023-03-23T13:33:05;17.80;67.20
45207;DHT22;30950;53.086;21.576;2023-03-23T13:35:37;17.80;67.60
45207;DHT22;30950;53.086;21.576;2023-03-23T13:38:33;17.70;67.90
45207;DHT22;30950;53.086;21.576;2023-03-23T13:41:06;17.60;68.20
45207;DHT22;30950;53.086;21.576;2023-03-23T13:43:35;17.60;68.60
45207;DHT22;30950;53.086;21.576;2023-03-23T13:48:50;17.50;69.50
45207;DHT22;30950;53.086;21.576;2023-03-23T13:51:36;17.50;69.90
45207;DHT22;30950;53.086;21.576;2023-03-23T13:54:15;17.50;70.50
45207;DHT22;30950;53.086;21.576;2023-03-23T13:59:17;17.40;71.00
45207;DHT22;30950;53.086;21.576;2023-03-23T14:01:55;17.40;72.10
45207;DHT22;30950;53.086;21.576;2023-03-23T14:04:22;17.40;71.90
45207;DHT22;30950;53.086;21.576;2023-03-23T14:06:50;17.30;72.50
45207;DHT22;30950;53.086;21.576;2023-03-23T14:09:33;17.30;73.20
45207;DHT22;30950;53.086;21.576;2023-03-23T14:12:03;17.20;73.80
45207;DHT22;30950;53.086;21.576;2023-03-23T14:14:41;17.20;74.20
45207;DHT22;30950;53.086;21.576;2023-03-23T14:17:14;17.10;74.70
45207;DHT22;30950;53.086;21.576;2023-03-23T14:19:42;17.00;75.60
45207;DHT22;30950;53.086;21.576;2023-03-23T14:22:36;16.80;77.10
45207;DHT22;30950;53.086;21.576;2023-03-23T14:25:17;16.70;79.50
45207;DHT22;30950;53.086;21.576;2023-03-23T14:27:44;16.50;83.10
45207;DHT22;30950;53.086;21.576;2023-03-23T14:30:22;16.30;85.70
45207;DHT22;30950;53.086;21.576;2023-03-23T14:32:49;16.20;88.80
45207;DHT22;30950;53.086;21.576;2023-03-23T14:35:31;16.10;91.00
45207;DHT22;30950;53.086;21.576;2023-03-23T14:37:58;16.00;93.10
45207;DHT22;30950;53.086;21.576;2023-03-23T14:40:27;15.80;93.90
45207;DHT22;30950;53.086;21.576;2023-03-23T14:42:54;15.80;94.80
45207;DHT22;30950;53.086;21.576;2023-03-23T14:45:22;15.70;95.20
45207;DHT22;30950;53.086;21.576;2023-03-23T14:47:57;15.70;95.90
45207;DHT22;30950;53.086;21.576;2023-03-23T14:50:29;15.70;95.90
45207;DHT22;30950;53.086;21.576;2023-03-23T14:53:02;15.70;95.80
45207;DHT22;30950;53.086;21.576;2023-03-23T14:55:31;15.70;95.90
45207;DHT22;30950;53.086;21.576;2023-03-23T14:58:07;15.80;96.20
45207;DHT22;30950;53.086;21.576;2023-03-23T15:00:39;15.70;96.50
45207;DHT22;30950;53.086;21.576;2023-03-23T15:03:11;15.70;96.70
45207;DHT22;30950;53.086;21.576;2023-03-23T15:05:43;15.70;97.00
45207;DHT22;30950;53.086;21.576;2023-03-23T15:08:19;15.70;97.60
45207;DHT22;30950;53.086;21.576;2023-03-23T15:10:54;15.70;98.40
45207;DHT22;30950;53.086;21.576;2023-03-23T15:13:21;15.60;99.90
45207;DHT22;30950;53.086;21.576;2023-03-23T15:15:47;15.50;99.90
45207;DHT22;30950;53.086;21.576;2023-03-23T15:18:30;15.40;99.90
45207;DHT22;30950;53.086;21.576;2023-03-23T15:20:56;15.30;99.90
45207;DHT22;30950;53.086;21.576;2023-03-23T15:23:28;15.20;99.90
45207;DHT22;30950;53.086;21.576;2023-03-23T15:25:56;15.10;99.90
45207;DHT22;30950;53.086;21.576;2023-03-23T15:28:30;15.10;99.90
45207;DHT22;30950;53.086;21.576;2023-03-23T15:31:03;15.00;99.90
45207;DHT22;30950;53.086;21.576;2023-03-23T15:33:38;14.90;99.90
45207;DHT22;30950;53.086;21.576;2023-03-23T15:36:18;14.80;99.90
45207;DHT22;30950;53.086;21.576;2023-03-23T15:38:46;14.60;99.90
45207;DHT22;30950;53.086;21.576;2023-03-23T15:41:27;14.30;99.90
45207;DHT22;30950;53.086;21.576;2023-03-23T15:43:56;14.20;99.90
45207;DHT22;30950;53.086;21.576;2023-03-23T15:46:28;14.00;99.90
45207;DHT22;30950;53.086;21.576;2023-03-23T15:51:26;13.80;99.90
45207;DHT22;30950;53.086;21.576;2023-03-23T15:53:54;13.80;99.90
45207;DHT22;30950;53.086;21.576;2023-03-23T15:56:21;13.60;99.90
45207;DHT22;30950;53.086;21.576;2023-03-23T15:58:48;13.50;99.90
45207;DHT22;30950;53.086;21.576;2023-03-23T16:01:22;13.40;99.90
45207;DHT22;30950;53.086;21.576;2023-03-23T16:04:05;13.20;99.90
45207;DHT22;30950;53.086;21.576;2023-03-23T16:06:34;13.20;99.90
45207;DHT22;30950;53.086;21.576;2023-03-23T16:09:03;13.00;99.90
45207;DHT22;30950;53.086;21.576;2023-03-23T16:11:31;13.00;99.90
45207;DHT22;30950;53.086;21.576;2023-03-23T16:14:00;12.90;99.90
45207;DHT22;30950;53.086;21.576;2023-03-23T16:16:30;12.80;99.90
45207;DHT22;30950;53.086;21.576;2023-03-23T16:18:59;12.80;99.90
45207;DHT22;30950;53.086;21.576;2023-03-23T16:21:26;12.70;99.90
45207;DHT22;30950;53.086;21.576;2023-03-23T16:23:55;12.70;99.90
45207;DHT22;30950;53.086;21.576;2023-03-23T16:26:23;12.60;99.90
45207;DHT22;30950;53.086;21.576;2023-03-23T16:28:50;12.50;99.90
45207;DHT22;30950;53.086;21.576;2023-03-23T16:31:28;12.40;99.90
45207;DHT22;30950;53.086;21.576;2023-03-23T16:33:56;12.30;99.90
45207;DHT22;30950;53.086;21.576;2023-03-23T16:36:23;12.30;99.90
45207;DHT22;30950;53.086;21.576;2023-03-23T16:38:51;12.20;99.90
45207;DHT22;30950;53.086;21.576;2023-03-23T16:41:20;12.10;99.90
45207;DHT22;30950;53.086;21.576;2023-03-23T16:43:48;12.10;99.90
45207;DHT22;30950;53.086;21.576;2023-03-23T16:46:15;12.00;99.90
45207;DHT22;30950;53.086;21.576;2023-03-23T16:48:42;11.90;99.90
45207;DHT22;30950;53.086;21.576;2023-03-23T16:51:10;11.90;99.90
45207;DHT22;30950;53.086;21.576;2023-03-23T16:53:37;11.90;99.90
45207;DHT22;30950;53.086;21.576;2023-03-23T16:56:04;11.90;99.90
45207;DHT22;30950;53.086;21.576;2023-03-23T16:58:32;11.90;99.90
45207;DHT22;30950;53.086;21.576;2023-03-23T17:01:00;11.80;99.90
45207;DHT22;30950;53.086;21.576;2023-03-23T17:03:28;11.90;99.90
45207;DHT22;30950;53.086;21.576;2023-03-23T17:05:55;11.90;99.90
45207;DHT22;30950;53.086;21.576;2023-03-23T17:08:25;11.90;99.90
45207;DHT22;30950;53.086;21.576;2023-03-23T17:10:52;11.90;99.90
45207;DHT22;30950;53.086;21.576;2023-03-23T17:13:19;11.90;99.90
45207;DHT22;30950;53.086;21.576;2023-03-23T17:15:51;11.90;99.90
45207;DHT22;30950;53.086;21.576;2023-03-23T17:18:19;12.00;99.90
45207;DHT22;30950;53.086;21.576;2023-03-23T17:20:47;12.00;99.90
45207;DHT22;30950;53.086;21.576;2023-03-23T17:23:14;12.00;99.90
45207;DHT22;30950;53.086;21.576;2023-03-23T17:25:45;12.00;99.90
45207;DHT22;30950;53.086;21.576;2023-03-23T17:28:12;12.00;99.90
45207;DHT22;30950;53.086;21.576;2023-03-23T17:30:41;12.00;99.90
45207;DHT22;30950;53.086;21.576;2023-03-23T17:33:10;12.00;99.90
45207;DHT22;30950;53.086;21.576;2023-03-23T17:35:37;12.10;99.90
45207;DHT22;30950;53.086;21.576;2023-03-23T17:38:05;12.00;99.90
45207;DHT22;30950;53.086;21.576;2023-03-23T17:40:32;12.40;99.90
45207;DHT22;30950;53.086;21.576;2023-03-23T17:42:59;12.10;99.90
45207;DHT22;30950;53.086;21.576;2023-03-23T17:45:27;12.10;99.90
45207;DHT22;30950;53.086;21.576;2023-03-23T17:47:54;12.10;99.90